createdAt,value
2023-04-02T00:02:29.526Z,7.62
2023-04-02T00:05:35.836Z,7.63
2023-04-02T00:08:10.539Z,7.60
2023-04-02T00:10:50.864Z,7.65
2023-04-02T00:13:27.736Z,7.61
2023-04-02T00:15:59.838Z,7.50
2023-04-02T00:18:31.273Z,7.36
2023-04-02T00:21:11.536Z,7.43
2023-04-02T00:23:45.446Z,7.38
2023-04-02T00:26:37.070Z,7.37
2023-04-02T00:29:09.125Z,7.37
2023-04-02T00:31:44.300Z,7.35
2023-04-02T00:34:21.595Z,7.37
2023-04-02T00:36:52.703Z,7.33
2023-04-02T00:39:27.801Z,7.30
2023-04-02T00:42:07.630Z,7.22
2023-04-02T00:44:42.972Z,7.18
2023-04-02T00:47:19.036Z,7.20
2023-04-02T00:49:50.394Z,7.26
2023-04-02T00:52:24.076Z,7.24
2023-04-02T00:55:03.151Z,7.33
2023-04-02T00:57:37.028Z,7.38
2023-04-02T01:00:26.169Z,7.47
2023-04-02T01:03:29.171Z,7.45
2023-04-02T01:06:11.217Z,7.50
2023-04-02T01:08:56.835Z,7.51
2023-04-02T01:11:39.891Z,7.52
2023-04-02T01:14:23.498Z,7.51
2023-04-02T01:17:00.647Z,7.45
2023-04-02T01:19:53.013Z,7.48
2023-04-02T01:22:30.943Z,7.54
2023-04-02T01:25:02.264Z,7.60
2023-04-02T01:27:37.893Z,7.58
2023-04-02T01:30:14.714Z,7.58
2023-04-02T01:32:46.436Z,7.63
2023-04-02T01:35:17.452Z,7.60
2023-04-02T01:37:56.773Z,7.71
2023-04-02T01:40:37.320Z,7.64
2023-04-02T01:43:19.104Z,7.64
2023-04-02T01:45:53.052Z,7.58
2023-04-02T01:48:27.716Z,7.56
2023-04-02T01:51:00.944Z,7.66
2023-04-02T01:53:33.484Z,7.70
2023-04-02T01:56:05.232Z,7.70
2023-04-02T01:58:36.734Z,7.72
2023-04-02T02:01:17.660Z,7.73
2023-04-02T02:03:48.560Z,7.73
2023-04-02T02:06:22.159Z,7.76
2023-04-02T02:08:57.710Z,7.79
2023-04-02T02:11:32.417Z,7.78
2023-04-02T02:14:04.674Z,7.68
2023-04-02T02:16:42.301Z,7.77
2023-04-02T02:19:23.091Z,7.84
2023-04-02T02:21:56.136Z,7.85
2023-04-02T02:24:28.455Z,7.82
2023-04-02T02:27:13.460Z,7.86
2023-04-02T02:29:46.069Z,7.87
2023-04-02T02:32:21.004Z,7.81
2023-04-02T02:34:56.592Z,7.67
2023-04-02T02:37:32.315Z,7.47
2023-04-02T02:40:07.039Z,7.62
2023-04-02T02:42:41.938Z,7.60
2023-04-02T02:45:19.551Z,7.63
2023-04-02T02:47:53.910Z,7.59
2023-04-02T02:50:28.641Z,7.66
2023-04-02T02:53:02.209Z,7.69
2023-04-02T02:55:38.197Z,7.70
2023-04-02T02:58:23.718Z,7.72
2023-04-02T03:01:08.502Z,7.72
2023-04-02T03:03:45.068Z,7.71
2023-04-02T03:06:20.921Z,7.65
2023-04-02T03:09:03.984Z,7.67
2023-04-02T03:11:43.195Z,7.62
2023-04-02T03:14:24.277Z,7.62
2023-04-02T03:17:03.551Z,7.66
2023-04-02T03:19:44.881Z,7.57
2023-04-02T03:22:19.798Z,7.64
2023-04-02T03:24:59.319Z,7.54
2023-04-02T03:27:34.941Z,7.64
2023-04-02T03:30:23.535Z,7.64
2023-04-02T03:33:00.919Z,7.71
2023-04-02T03:35:39.181Z,7.67
2023-04-02T03:38:16.590Z,7.73
2023-04-02T03:40:58.938Z,7.80
2023-04-02T03:43:31.817Z,7.77
2023-04-02T03:46:14.632Z,7.79
2023-04-02T03:48:49.496Z,7.80
2023-04-02T03:51:27.936Z,7.80
2023-04-02T03:53:59.448Z,7.76
2023-04-02T03:56:34.464Z,7.79
2023-04-02T03:59:14.896Z,7.81
2023-04-02T04:01:51.370Z,7.83
2023-04-02T04:04:23.016Z,7.80
2023-04-02T04:06:59.028Z,7.73
2023-04-02T04:09:33.881Z,7.68
2023-04-02T04:12:17.892Z,7.75
2023-04-02T04:14:53.712Z,7.79
2023-04-02T04:17:30.362Z,7.74
2023-04-02T04:20:10.822Z,7.73
2023-04-02T04:22:43.752Z,7.69
2023-04-02T04:25:29.903Z,7.78
2023-04-02T04:28:12.132Z,7.79
2023-04-02T04:30:52.883Z,7.71
2023-04-02T04:33:29.262Z,7.71
2023-04-02T04:36:06.652Z,7.72
2023-04-02T04:38:44.380Z,7.67
2023-04-02T04:41:23.087Z,7.67
2023-04-02T04:44:01.416Z,7.68
2023-04-02T04:46:35.974Z,7.68
2023-04-02T04:49:14.184Z,7.73
2023-04-02T04:51:49.886Z,7.76
2023-04-02T04:54:23.142Z,7.75
2023-04-02T04:56:59.984Z,7.72
2023-04-02T04:59:35.092Z,7.78
2023-04-02T05:02:10.770Z,7.87
2023-04-02T05:04:43.847Z,7.92
2023-04-02T05:07:23.183Z,7.94
2023-04-02T05:10:02.452Z,7.96
2023-04-02T05:12:43.446Z,8.01
2023-04-02T05:15:23.109Z,8.01
2023-04-02T05:17:58.730Z,8.01
2023-04-02T05:20:37.954Z,7.97
2023-04-02T05:23:18.160Z,8.01
2023-04-02T05:26:07.296Z,8.08
2023-04-02T05:28:45.905Z,7.98
2023-04-02T05:31:21.755Z,7.97
2023-04-02T05:33:53.158Z,8.00
2023-04-02T05:36:26.945Z,7.95
2023-04-02T05:39:02.369Z,7.99
2023-04-02T05:41:48.007Z,8.08
2023-04-02T05:44:38.580Z,8.11
2023-04-02T05:47:15.514Z,8.13
2023-04-02T05:49:50.597Z,8.18
2023-04-02T05:52:26.460Z,8.19
2023-04-02T05:55:02.257Z,8.15
2023-04-02T05:57:45.846Z,8.21
2023-04-02T06:00:29.565Z,8.16
2023-04-02T06:03:07.662Z,8.26
2023-04-02T06:05:44.940Z,8.40
2023-04-02T06:08:20.486Z,8.53
2023-04-02T06:10:55.550Z,8.63
2023-04-02T06:13:31.982Z,8.70
2023-04-02T06:16:03.312Z,8.64
2023-04-02T06:18:39.014Z,8.65
2023-04-02T06:21:09.839Z,8.67
2023-04-02T06:23:46.828Z,8.75
2023-04-02T06:26:22.576Z,8.73
2023-04-02T06:29:02.717Z,8.73
2023-04-02T06:31:38.796Z,8.79
2023-04-02T06:34:19.072Z,8.83
2023-04-02T06:37:02.755Z,8.85
2023-04-02T06:39:34.700Z,8.72
2023-04-02T06:42:16.152Z,8.61
2023-04-02T06:45:27.124Z,8.68
2023-04-02T06:48:21.145Z,8.64
2023-04-02T06:51:03.980Z,8.63
2023-04-02T06:53:37.768Z,8.63
2023-04-02T06:56:16.101Z,8.62
2023-04-02T06:58:46.682Z,8.59
2023-04-02T07:01:24.981Z,8.39
2023-04-02T07:03:55.430Z,8.54
2023-04-02T07:06:39.420Z,8.59
2023-04-02T07:09:09.856Z,8.69
2023-04-02T07:11:43.412Z,8.87
2023-04-02T07:14:14.972Z,8.99
2023-04-02T07:16:47.991Z,8.89
2023-04-02T07:19:22.512Z,9.00
2023-04-02T07:21:57.181Z,9.21
2023-04-02T07:24:30.572Z,9.33
2023-04-02T07:27:00.668Z,9.49
2023-04-02T07:29:30.615Z,9.60
2023-04-02T07:32:03.519Z,9.66
2023-04-02T07:34:33.508Z,9.72
2023-04-02T07:37:04.324Z,9.91
2023-04-02T07:39:36.812Z,10.03
2023-04-02T07:42:08.295Z,10.21
2023-04-02T07:44:38.249Z,10.37
2023-04-02T07:47:11.708Z,10.59
2023-04-02T07:49:42.294Z,10.70
2023-04-02T07:52:13.047Z,10.92
2023-04-02T07:54:44.078Z,11.11
2023-04-02T07:57:14.286Z,11.27
2023-04-02T07:59:44.625Z,11.28
2023-04-02T08:02:24.797Z,11.44
2023-04-02T08:04:55.892Z,11.52
2023-04-02T08:07:30.888Z,11.63
2023-04-02T08:10:02.206Z,11.69
2023-04-02T08:12:32.945Z,11.61
2023-04-02T08:15:03.282Z,11.80
2023-04-02T08:17:36.549Z,12.00
2023-04-02T08:20:10.647Z,12.17
2023-04-02T08:22:41.206Z,12.10
2023-04-02T08:25:13.239Z,12.12
2023-04-02T08:27:44.064Z,12.07
2023-04-02T08:30:16.657Z,12.17
2023-04-02T08:32:49.443Z,12.37
2023-04-02T08:35:20.385Z,12.12
2023-04-02T08:37:50.711Z,11.98
2023-04-02T08:40:26.415Z,11.74
2023-04-02T08:43:23.564Z,11.50
2023-04-02T08:46:05.314Z,11.54
2023-04-02T08:48:43.683Z,11.66
2023-04-02T08:51:25.711Z,12.38
2023-04-02T08:53:58.776Z,12.45
2023-04-02T08:56:35.353Z,12.80
2023-04-02T08:59:14.133Z,12.12
2023-04-02T09:01:55.802Z,12.83
2023-04-02T09:04:29.506Z,13.29
2023-04-02T09:07:03.340Z,13.82
2023-04-02T09:09:41.677Z,13.28
2023-04-02T09:12:22.168Z,13.67
2023-04-02T09:15:05.845Z,13.97
2023-04-02T09:17:50.407Z,14.52
2023-04-02T09:20:29.518Z,14.17
2023-04-02T09:23:03.876Z,14.57
2023-04-02T09:25:34.915Z,14.60
2023-04-02T09:28:07.836Z,14.68
2023-04-02T09:30:54.086Z,14.42
2023-04-02T09:33:44.253Z,14.46
2023-04-02T09:36:41.979Z,13.71
2023-04-02T09:39:20.687Z,13.51
2023-04-02T09:42:02.789Z,13.57
2023-04-02T09:44:35.870Z,13.19
2023-04-02T09:47:09.752Z,12.49
2023-04-02T09:49:41.644Z,12.02
2023-04-02T09:52:23.517Z,12.17
2023-04-02T09:55:20.740Z,12.61
2023-04-02T09:57:53.582Z,12.37
2023-04-02T10:00:32.043Z,12.42
2023-04-02T10:03:06.510Z,12.51
2023-04-02T10:05:41.166Z,12.48
2023-04-02T10:08:22.563Z,12.30
2023-04-02T10:10:57.443Z,12.33
2023-04-02T10:13:31.975Z,12.23
2023-04-02T10:16:06.900Z,12.06
2023-04-02T10:18:44.402Z,12.01
2023-04-02T10:21:18.566Z,12.14
2023-04-02T10:23:51.675Z,12.43
2023-04-02T10:26:44.419Z,12.73
2023-04-02T10:29:26.453Z,12.86
2023-04-02T10:32:04.234Z,12.81
2023-04-02T10:34:43.167Z,13.02
2023-04-02T10:37:44.164Z,13.47
2023-04-02T10:40:22.435Z,13.73
2023-04-02T10:43:12.714Z,13.64
2023-04-02T10:45:49.296Z,13.67
2023-04-02T10:48:27.553Z,13.47
2023-04-02T10:51:03.517Z,13.66
2023-04-02T10:53:40.265Z,13.67
2023-04-02T10:56:16.089Z,13.62
2023-04-02T10:58:56.164Z,13.55
2023-04-02T11:01:31.131Z,13.83
2023-04-02T11:04:06.559Z,13.67
2023-04-02T11:06:48.273Z,13.90
2023-04-02T11:09:23.526Z,13.69
2023-04-02T11:11:59.657Z,13.85
2023-04-02T11:14:31.795Z,13.88
2023-04-02T11:17:04.735Z,13.73
2023-04-02T11:19:36.402Z,13.68
2023-04-02T11:22:08.564Z,13.65
2023-04-02T11:24:45.688Z,13.58
2023-04-02T11:27:34.631Z,13.87
2023-04-02T11:30:24.566Z,13.82
2023-04-02T11:32:56.536Z,14.01
2023-04-02T11:35:42.483Z,14.03
2023-04-02T11:38:48.163Z,13.44
2023-04-02T11:41:53.134Z,13.26
2023-04-02T11:44:31.949Z,13.52
2023-04-02T11:47:19.084Z,13.90
2023-04-02T11:50:04.381Z,13.80
2023-04-02T11:52:39.642Z,13.46
2023-04-02T11:55:27.555Z,13.30
2023-04-02T11:58:09.148Z,13.31
2023-04-02T12:01:09.526Z,13.56
2023-04-02T12:04:11.942Z,13.96
2023-04-02T12:06:55.651Z,14.37
2023-04-02T12:09:27.832Z,14.52
2023-04-02T12:12:01.474Z,14.36
2023-04-02T12:14:44.083Z,14.19
2023-04-02T12:17:23.286Z,13.78
2023-04-02T12:19:58.810Z,13.73
2023-04-02T12:22:31.600Z,13.79
2023-04-02T12:25:04.674Z,14.23
2023-04-02T12:27:38.572Z,14.28
2023-04-02T12:30:19.982Z,14.79
2023-04-02T12:32:51.179Z,14.32
2023-04-02T12:35:34.546Z,13.89
2023-04-02T12:38:05.067Z,14.30
2023-04-02T12:40:35.420Z,15.05
2023-04-02T12:43:05.751Z,15.28
2023-04-02T12:45:37.285Z,14.63
2023-04-02T12:48:09.622Z,14.49
2023-04-02T12:50:43.760Z,14.94
2023-04-02T12:53:23.225Z,15.38
2023-04-02T12:55:55.131Z,15.12
2023-04-02T12:58:32.144Z,14.84
2023-04-02T13:01:21.640Z,14.90
2023-04-02T13:04:06.376Z,15.11
2023-04-02T13:06:39.587Z,15.31
2023-04-02T13:09:29.150Z,15.59
2023-04-02T13:11:59.630Z,15.57
2023-04-02T13:14:31.104Z,15.31
2023-04-02T13:17:03.588Z,15.19
2023-04-02T13:19:35.896Z,14.91
2023-04-02T13:22:33.482Z,15.14
2023-04-02T13:25:03.694Z,15.47
2023-04-02T13:27:33.897Z,14.87
2023-04-02T13:30:11.146Z,14.69
2023-04-02T13:32:41.463Z,14.49
2023-04-02T13:35:12.299Z,14.15
2023-04-02T13:37:45.169Z,14.21
2023-04-02T13:40:17.501Z,13.49
2023-04-02T13:42:49.471Z,13.08
2023-04-02T13:45:27.467Z,12.28
2023-04-02T13:48:01.145Z,11.57
2023-04-02T13:50:37.020Z,11.54
2023-04-02T13:53:16.393Z,11.44
2023-04-02T13:55:47.161Z,11.26
2023-04-02T13:58:17.212Z,11.06
2023-04-02T14:00:47.694Z,10.93
2023-04-02T14:03:23.085Z,10.87
2023-04-02T14:06:01.245Z,10.69
2023-04-02T14:08:47.598Z,10.66
2023-04-02T14:11:31.531Z,10.62
2023-04-02T14:14:20.288Z,10.61
2023-04-02T14:17:06.525Z,10.64
2023-04-02T14:19:53.041Z,10.62
2023-04-02T14:22:33.211Z,10.58
2023-04-02T14:25:15.990Z,10.42
2023-04-02T14:27:55.261Z,10.45
2023-04-02T14:30:35.046Z,10.46
2023-04-02T14:33:12.882Z,10.58
2023-04-02T14:35:48.542Z,10.41
2023-04-02T14:38:25.524Z,10.34
2023-04-02T14:41:03.823Z,10.42
2023-04-02T14:43:40.886Z,10.52
2023-04-02T14:46:13.116Z,10.59
2023-04-02T14:48:54.785Z,10.65
2023-04-02T14:51:31.631Z,10.65
2023-04-02T14:54:12.231Z,10.72
2023-04-02T14:56:52.758Z,10.74
2023-04-02T14:59:31.720Z,10.89
2023-04-02T15:02:06.186Z,10.71
2023-04-02T15:04:39.741Z,10.69
2023-04-02T15:07:22.262Z,10.93
2023-04-02T15:09:57.872Z,11.01
2023-04-02T15:12:36.299Z,10.89
2023-04-02T15:15:22.209Z,10.82
2023-04-02T15:17:57.643Z,10.76
2023-04-02T15:20:29.131Z,10.60
2023-04-02T15:23:06.682Z,10.34
2023-04-02T15:25:44.505Z,10.10
2023-04-02T15:28:28.108Z,10.13
2023-04-02T15:31:01.176Z,10.03
2023-04-02T15:33:44.133Z,9.93
2023-04-02T15:36:48.665Z,9.67
2023-04-02T15:39:38.971Z,9.59
2023-04-02T15:42:20.063Z,9.43
2023-04-02T15:45:16.528Z,9.24
2023-04-02T15:47:56.195Z,9.28
2023-04-02T15:50:45.389Z,9.27
2023-04-02T15:53:34.024Z,9.17
2023-04-02T15:56:12.920Z,9.21
2023-04-02T15:58:58.439Z,9.15
2023-04-02T16:01:43.689Z,9.01
2023-04-02T16:04:26.294Z,8.72
2023-04-02T16:07:11.710Z,8.66
2023-04-02T16:09:51.168Z,8.62
2023-04-02T16:12:29.427Z,8.68
2023-04-02T16:15:06.256Z,8.71
2023-04-02T16:17:42.540Z,8.64
2023-04-02T16:20:24.665Z,8.75
2023-04-02T16:23:02.924Z,8.84
2023-04-02T16:25:42.466Z,8.69
2023-04-02T16:28:22.578Z,8.57
2023-04-02T16:31:01.820Z,8.53
2023-04-02T16:33:55.184Z,8.52
2023-04-02T16:36:33.625Z,8.35
2023-04-02T16:39:10.730Z,8.25
2023-04-02T16:41:57.180Z,8.28
2023-04-02T16:44:36.457Z,8.13
2023-04-02T16:47:23.688Z,8.17
2023-04-02T16:50:06.931Z,8.10
2023-04-02T16:52:45.937Z,8.08
2023-04-02T16:55:29.356Z,7.94
2023-04-02T16:58:11.737Z,8.01
2023-04-02T17:00:47.767Z,7.85
2023-04-02T17:03:53.214Z,7.72
2023-04-02T17:06:38.322Z,7.79
2023-04-02T17:09:18.164Z,7.73
2023-04-02T17:11:52.725Z,7.67
2023-04-02T17:14:35.210Z,7.60
2023-04-02T17:17:07.797Z,7.41
2023-04-02T17:19:38.244Z,7.36
2023-04-02T17:22:17.509Z,7.34
2023-04-02T17:24:57.118Z,7.34
2023-04-02T17:27:34.329Z,7.33
2023-04-02T17:30:08.806Z,7.18
2023-04-02T17:32:39.378Z,7.17
2023-04-02T17:35:21.793Z,7.12
2023-04-02T17:38:02.578Z,7.17
2023-04-02T17:40:42.395Z,7.14
2023-04-02T17:43:22.827Z,7.05
2023-04-02T17:45:55.925Z,6.97
2023-04-02T17:48:34.445Z,6.94
2023-04-02T17:51:17.849Z,6.90
2023-04-02T17:54:02.382Z,6.85
2023-04-02T17:56:55.512Z,6.67
2023-04-02T17:59:50.631Z,6.50
2023-04-02T18:02:36.487Z,6.48
2023-04-02T18:05:19.649Z,6.37
2023-04-02T18:07:59.780Z,6.39
2023-04-02T18:10:42.429Z,6.42
2023-04-02T18:13:26.978Z,6.39
2023-04-02T18:16:21.681Z,6.45
2023-04-02T18:19:09.934Z,6.34
2023-04-02T18:21:46.609Z,6.33
2023-04-02T18:24:30.902Z,6.25
2023-04-02T18:27:20.404Z,6.21
2023-04-02T18:29:58.340Z,6.13
2023-04-02T18:32:56.938Z,6.02
2023-04-02T18:35:51.660Z,6.06
2023-04-02T18:39:00.250Z,5.88
2023-04-02T18:41:45.560Z,5.84
2023-04-02T18:44:36.512Z,5.76
2023-04-02T18:47:15.391Z,5.67
2023-04-02T18:49:52.936Z,5.52
2023-04-02T18:52:24.669Z,5.50
2023-04-02T18:55:00.674Z,5.46
2023-04-02T18:57:36.294Z,5.37
2023-04-02T19:00:24.379Z,5.36
2023-04-02T19:03:00.675Z,5.30
2023-04-02T19:05:40.727Z,5.33
2023-04-02T19:08:17.460Z,5.28
2023-04-02T19:10:48.969Z,5.27
2023-04-02T19:13:21.863Z,5.19
2023-04-02T19:16:43.454Z,5.07
2023-04-02T19:19:20.977Z,5.06
2023-04-02T19:22:17.304Z,4.99
2023-04-02T19:25:17.901Z,5.11
2023-04-02T19:28:00.201Z,5.09
2023-04-02T19:30:42.087Z,4.91
2023-04-02T19:33:30.247Z,4.94
2023-04-02T19:36:06.989Z,4.95
2023-04-02T19:38:52.489Z,4.82
2023-04-02T19:41:32.519Z,4.85
2023-04-02T19:44:02.921Z,4.78
2023-04-02T19:46:33.625Z,4.70
2023-04-02T19:49:12.087Z,4.70
2023-04-02T19:51:42.452Z,4.67
2023-04-02T19:54:13.362Z,4.64
2023-04-02T19:56:43.868Z,4.66
2023-04-02T19:59:18.052Z,4.61
2023-04-02T20:01:49.886Z,4.68
2023-04-02T20:04:25.198Z,4.61
2023-04-02T20:06:55.624Z,4.67
2023-04-02T20:09:25.659Z,4.57
2023-04-02T20:11:57.403Z,4.42
2023-04-02T20:14:29.730Z,4.43
2023-04-02T20:16:59.808Z,4.53
2023-04-02T20:19:33.098Z,4.51
2023-04-02T20:22:03.142Z,4.41
2023-04-02T20:24:33.278Z,4.31
2023-04-02T20:27:03.460Z,4.24
2023-04-02T20:29:34.002Z,4.29
2023-04-02T20:32:04.396Z,4.29
2023-04-02T20:34:37.246Z,4.39
2023-04-02T20:37:08.260Z,4.34
2023-04-02T20:39:38.995Z,4.36
2023-04-02T20:42:09.428Z,4.31
2023-04-02T20:44:39.464Z,4.22
2023-04-02T20:47:09.593Z,4.11
2023-04-02T20:49:42.149Z,4.21
2023-04-02T20:52:12.738Z,4.24
2023-04-02T20:54:43.007Z,4.33
2023-04-02T20:57:13.938Z,4.31
2023-04-02T20:59:44.174Z,4.24
2023-04-02T21:02:15.291Z,4.05
2023-04-02T21:04:48.055Z,4.03
2023-04-02T21:07:19.229Z,4.05
2023-04-02T21:09:49.564Z,3.87
2023-04-02T21:12:20.343Z,3.78
2023-04-02T21:14:55.775Z,4.01
2023-04-02T21:17:26.105Z,4.09
2023-04-02T21:19:58.908Z,4.11
2023-04-02T21:22:29.220Z,4.11
2023-04-02T21:24:59.313Z,4.09
2023-04-02T21:27:29.628Z,4.08
2023-04-02T21:29:59.625Z,4.05
2023-04-02T21:32:30.264Z,4.02
2023-04-02T21:35:03.167Z,4.09
2023-04-02T21:37:33.166Z,4.08
2023-04-02T21:40:04.174Z,4.15
2023-04-02T21:42:34.172Z,4.11
2023-04-02T21:45:04.699Z,4.19
2023-04-02T21:47:34.695Z,4.18
2023-04-02T21:50:08.738Z,4.12
2023-04-02T21:52:38.739Z,3.99
2023-04-02T21:55:09.707Z,3.99
2023-04-02T21:57:40.054Z,4.29
2023-04-02T22:00:12.892Z,4.14
2023-04-02T22:02:45.493Z,4.11
2023-04-02T22:05:18.409Z,4.10
2023-04-02T22:07:49.141Z,4.04
2023-04-02T22:10:19.202Z,4.25
2023-04-02T22:12:52.167Z,4.16
2023-04-02T22:15:22.119Z,4.05
2023-04-02T22:17:52.171Z,3.99
2023-04-02T22:20:25.980Z,3.82
2023-04-02T22:22:56.769Z,3.84
2023-04-02T22:25:26.826Z,3.79
2023-04-02T22:27:58.636Z,3.65
2023-04-02T22:30:30.465Z,3.68
2023-04-02T22:33:01.203Z,3.75
2023-04-02T22:35:34.749Z,3.87
2023-04-02T22:38:04.771Z,3.79
2023-04-02T22:40:36.363Z,3.90
2023-04-02T22:43:07.221Z,3.80
2023-04-02T22:45:37.442Z,3.77
2023-04-02T22:48:07.651Z,3.89
2023-04-02T22:50:40.434Z,3.86
2023-04-02T22:53:12.112Z,3.83
2023-04-02T22:55:42.288Z,3.84
2023-04-02T22:58:12.675Z,3.58
2023-04-02T23:00:44.100Z,3.56
2023-04-02T23:03:14.373Z,3.75
2023-04-02T23:06:00.325Z,3.93
2023-04-02T23:08:30.305Z,3.85
2023-04-02T23:11:04.963Z,3.80
2023-04-02T23:13:36.109Z,3.75
2023-04-02T23:16:08.630Z,3.59
2023-04-02T23:18:40.706Z,3.62
2023-04-02T23:21:13.527Z,3.56
2023-04-02T23:23:43.808Z,3.63
2023-04-02T23:26:16.310Z,3.60
2023-04-02T23:28:46.942Z,3.55
2023-04-02T23:31:19.351Z,3.44
2023-04-02T23:33:50.209Z,3.48
2023-04-02T23:36:26.430Z,3.31
2023-04-02T23:38:57.768Z,3.27
2023-04-02T23:41:29.425Z,3.05
2023-04-02T23:44:00.483Z,3.00
2023-04-02T23:46:31.853Z,2.95
2023-04-02T23:49:03.115Z,3.08
2023-04-02T23:51:36.670Z,3.21
2023-04-02T23:54:07.032Z,2.96
2023-04-02T23:56:37.045Z,2.82
2023-04-02T23:59:07.460Z,2.64
